Time;durP1;ratioP1;P1;durP2;ratioP2;P2;SDS_P1;SDS_P2;PMS_P1;PMS_P2;Temp;Humidity;BMP_temperature;BMP_pressure;BME280_temperature;BME280_humidity;BME280_pressure;Samples;Min_cycle;Max_cycle;Signal;HPM_P1;HPM_P2
2023/10/09 00:03:00;;;;;;;1.05;0.80;;;;;;;21.29;nan;61911.13;5012906;28;20235;-63
2023/10/09 00:05:45;;;;;;;0.73;0.68;;;;;;;21.01;nan;61960.94;5012321;28;20267;-62
2023/10/09 00:08:30;;;;;;;0.65;0.55;;;;;;;21.10;nan;61702.97;5013465;28;20168;-62
2023/10/09 00:11:16;;;;;;;1.23;1.13;;;;;;;20.84;nan;61674.09;5012975;28;20243;-63
2023/10/09 00:13:57;;;;;;;0.63;0.63;;;;;;;20.69;nan;61706.97;5012865;28;20162;-62
2023/10/09 00:16:32;;;;;;;1.10;0.98;;;;;;;20.67;nan;61779.44;5013148;28;20179;-63
2023/10/09 00:19:17;;;;;;;0.70;0.70;;;;;;;20.86;nan;61671.13;5012500;28;20669;-62
2023/10/09 00:21:46;;;;;;;1.13;0.70;;;;;;;20.71;nan;61646.94;5012742;28;20202;-63
2023/10/09 00:24:30;;;;;;;1.38;1.27;;;;;;;20.47;nan;61632.72;5013522;28;20215;-63
2023/10/09 00:27:01;;;;;;;0.70;0.65;;;;;;;20.48;nan;61613.09;5025724;28;20199;-62
2023/10/09 00:29:35;;;;;;;1.05;1.05;;;;;;;20.44;nan;61559.22;5012650;28;20238;-62
2023/10/09 00:32:13;;;;;;;0.60;0.60;;;;;;;20.57;nan;61688.19;5011074;28;20180;-62
2023/10/09 00:34:39;;;;;;;0.85;0.80;;;;;;;20.27;nan;61599.66;5011989;28;20160;-62
2023/10/09 00:37:16;;;;;;;0.75;0.75;;;;;;;20.38;nan;61624.53;5011918;28;20609;-63
2023/10/09 00:39:47;;;;;;;0.82;0.82;;;;;;;20.14;nan;61699.06;5012115;28;20588;-63
2023/10/09 00:42:15;;;;;;;0.73;0.73;;;;;;;20.37;nan;61584.47;5012131;28;20160;-62
2023/10/09 00:44:44;;;;;;;1.00;1.00;;;;;;;20.28;nan;61603.94;5012157;28;20264;-62
2023/10/09 00:47:20;;;;;;;0.95;0.95;;;;;;;20.33;nan;61611.09;5011684;28;20200;-63
2023/10/09 00:49:59;;;;;;;0.98;0.70;;;;;;;20.34;nan;61607.63;5012116;28;20176;-62
2023/10/09 00:52:37;;;;;;;0.60;0.60;;;;;;;20.36;nan;61910.34;5011941;28;20168;-62
2023/10/09 00:55:09;;;;;;;1.20;0.93;;;;;;;20.26;nan;61573.13;5011801;28;20160;-63
2023/10/09 00:57:37;;;;;;;0.80;0.80;;;;;;;20.50;nan;61658.91;5011397;28;20306;-62
2023/10/09 01:00:10;;;;;;;0.70;0.70;;;;;;;20.40;nan;61606.59;5011717;28;20944;-62
2023/10/09 01:02:36;;;;;;;0.80;0.80;;;;;;;20.53;nan;61613.53;5011913;28;20175;-62
2023/10/09 01:05:26;;;;;;;0.93;0.70;;;;;;;20.24;nan;61723.97;5010589;28;20198;-62
2023/10/09 01:07:58;;;;;;;0.63;0.63;;;;;;;20.14;nan;61514.88;5011904;28;20572;-63
2023/10/09 01:10:25;;;;;;;0.88;0.80;;;;;;;20.14;nan;61559.56;5011811;28;20160;-62
2023/10/09 01:12:55;;;;;;;0.60;0.60;;;;;;;20.27;nan;61646.91;5011554;28;20635;-62
2023/10/09 01:15:36;;;;;;;0.65;0.65;;;;;;;20.15;nan;61578.84;5011505;28;20184;-63
2023/10/09 01:18:02;;;;;;;0.70;0.70;;;;;;;20.16;nan;61766.75;5014440;28;20190;-63
2023/10/09 01:20:32;;;;;;;0.70;0.70;;;;;;;20.06;nan;61586.81;5015564;28;20196;-62
2023/10/09 01:23:01;;;;;;;2.60;0.80;;;;;;;20.32;nan;61849.25;5015282;28;20484;-61
2023/10/09 01:25:41;;;;;;;0.50;0.50;;;;;;;20.39;nan;61748.22;5015962;28;20180;-62
2023/10/09 01:28:06;;;;;;;0.63;0.60;;;;;;;20.00;nan;61590.41;5015500;28;20176;-62
2023/10/09 01:30:33;;;;;;;0.60;0.60;;;;;;;20.25;nan;61620.75;5015467;28;20179;-62
2023/10/09 01:33:11;;;;;;;0.60;0.60;;;;;;;20.17;nan;61591.47;5015225;28;20180;-63
2023/10/09 01:35:46;;;;;;;0.50;0.50;;;;;;;20.02;nan;61594.69;5015650;28;20222;-63
2023/10/09 01:38:14;;;;;;;0.60;0.60;;;;;;;19.85;nan;61563.03;5015395;28;20175;-62
2023/10/09 01:40:40;;;;;;;0.60;0.60;;;;;;;19.76;nan;61537.84;5015247;28;20210;-62
2023/10/09 01:43:09;;;;;;;0.68;0.52;;;;;;;19.54;nan;61512.38;5015217;28;20211;-62
2023/10/09 01:45:46;;;;;;;0.70;0.70;;;;;;;19.52;nan;61507.53;5014693;28;20602;-63
2023/10/09 01:48:14;;;;;;;0.55;0.55;;;;;;;19.44;nan;61519.22;5015349;28;20204;-63
2023/10/09 01:50:41;;;;;;;0.50;0.50;;;;;;;19.38;nan;61647.69;5015119;28;20243;-63
2023/10/09 01:53:08;;;;;;;1.20;0.98;;;;;;;19.73;nan;61575.38;5014971;28;20179;-63
2023/10/09 01:55:39;;;;;;;0.60;0.60;;;;;;;19.49;nan;61667.97;5015111;28;20204;-63
2023/10/09 02:01:26;;;;;;;0.63;0.63;;;;;;;19.14;nan;61465.66;5012906;28;20242;-63
2023/10/09 02:03:52;;;;;;;0.82;0.82;;;;;;;18.98;nan;61486.41;5014894;28;20600;-62
2023/10/09 02:06:28;;;;;;;0.65;0.65;;;;;;;18.62;nan;61402.25;5014556;28;20196;-63
2023/10/09 02:08:56;;;;;;;1.23;1.10;;;;;;;18.58;nan;61648.72;5014811;28;20166;-63
2023/10/09 02:11:35;;;;;;;0.80;0.80;;;;;;;18.66;nan;61426.91;5014677;28;20180;-63
2023/10/09 02:14:01;;;;;;;0.65;0.65;;;;;;;18.79;nan;61434.41;5014786;28;20631;-62
2023/10/09 02:16:32;;;;;;;0.80;0.80;;;;;;;18.67;nan;61440.97;5015074;28;20548;-62
2023/10/09 02:18:58;;;;;;;0.70;0.70;;;;;;;18.68;nan;61566.34;5014391;28;20643;-64
2023/10/09 02:21:39;;;;;;;0.70;0.70;;;;;;;18.83;nan;61412.47;5014676;28;20165;-64
2023/10/09 02:24:07;;;;;;;0.50;0.50;;;;;;;18.92;nan;61435.59;5014736;28;20163;-63
2023/10/09 02:27:06;;;;;;;1.38;1.33;;;;;;;18.93;nan;61467.78;5014527;28;20203;-62
2023/10/09 02:29:18;;;;;;;0.70;0.70;;;;;;;19.07;nan;61477.88;5013890;28;20184;-63
2023/10/09 02:31:46;;;;;;;1.63;0.70;;;;;;;18.57;nan;61484.56;5014415;28;20180;-63
2023/10/09 02:34:11;;;;;;;0.70;0.70;;;;;;;18.02;nan;61402.22;5013867;28;20163;-62
2023/10/09 02:36:42;;;;;;;0.73;0.73;;;;;;;14.99;nan;62765.34;5013791;28;20160;-62
2023/10/09 02:39:21;;;;;;;1.05;0.77;;;;;;;17.19;nan;61232.06;5014177;28;20294;-61
2023/10/09 02:41:49;;;;;;;1.45;1.35;;;;;;;16.88;nan;61475.78;5014227;28;20175;-61
2023/10/09 02:44:15;;;;;;;0.93;0.80;;;;;;;16.43;nan;61134.00;5013818;28;20176;-62
2023/10/09 02:46:41;;;;;;;0.80;0.80;;;;;;;16.22;nan;61018.69;5013857;28;20243;-61
2023/10/09 02:49:09;;;;;;;0.70;0.70;;;;;;;16.22;nan;61118.63;5014025;28;20192;-61
2023/10/09 02:51:41;;;;;;;0.85;0.85;;;;;;;16.06;nan;61036.19;5013824;28;20193;-61
2023/10/09 02:54:35;;;;;;;0.98;0.98;;;;;;;15.72;nan;61089.16;5013692;28;20175;-62
2023/10/09 02:57:05;;;;;;;1.08;1.05;;;;;;;15.62;nan;61164.91;5013146;28;20196;-62
2023/10/09 02:59:30;;;;;;;0.73;0.73;;;;;;;15.40;nan;60963.00;5014082;28;20187;-61
2023/10/09 03:01:56;;;;;;;0.75;0.75;;;;;;;15.51;nan;61032.06;5013942;28;20184;-62
2023/10/09 03:04:23;;;;;;;0.60;0.60;;;;;;;15.31;nan;61004.34;5013761;28;20230;-62
2023/10/09 03:06:51;;;;;;;1.00;1.00;;;;;;;15.45;nan;61027.84;5013295;28;20204;-61
2023/10/09 03:09:18;;;;;;;1.05;1.05;;;;;;;15.12;nan;61142.50;5013702;28;20156;-62
2023/10/09 03:11:53;;;;;;;0.90;0.90;;;;;;;15.18;nan;61128.69;5013548;28;20215;-62
2023/10/09 03:14:24;;;;;;;0.90;0.90;;;;;;;14.97;nan;60987.25;5013486;28;20168;-62
2023/10/09 03:16:50;;;;;;;0.95;0.82;;;;;;;15.22;nan;61051.41;5013504;28;20191;-63
2023/10/09 03:19:16;;;;;;;0.80;0.80;;;;;;;15.09;nan;61026.47;5013387;28;20563;-62
2023/10/09 03:21:42;;;;;;;0.65;0.65;;;;;;;14.98;nan;61088.69;5012220;28;20191;-62
2023/10/09 03:24:08;;;;;;;1.00;1.00;;;;;;;15.15;nan;61069.25;5016360;28;20191;-62
2023/10/09 03:26:34;;;;;;;1.10;1.10;;;;;;;14.94;nan;61156.19;5027365;28;20191;-62
2023/10/09 03:29:06;;;;;;;0.70;0.70;;;;;;;15.13;nan;61041.28;5012909;28;20183;-62
2023/10/09 03:31:33;;;;;;;0.80;0.80;;;;;;;14.92;nan;61133.38;5024249;28;20608;-62
2023/10/09 03:33:59;;;;;;;3.50;1.15;;;;;;;15.04;nan;60998.25;5032852;28;20179;-63
2023/10/09 03:36:29;;;;;;;0.70;0.70;;;;;;;14.71;nan;60981.69;5031418;28;20670;-62
2023/10/09 03:38:57;;;;;;;0.80;0.80;;;;;;;15.11;nan;61039.03;5032426;28;20209;-62
2023/10/09 03:41:25;;;;;;;0.90;0.90;;;;;;;14.95;nan;61283.34;5032600;28;20203;-62
2023/10/09 03:43:51;;;;;;;0.68;0.68;;;;;;;14.94;nan;60994.72;5032796;28;20193;-61
2023/10/09 03:46:21;;;;;;;0.80;0.80;;;;;;;14.56;nan;60846.56;5032034;28;20678;-64
2023/10/09 03:48:56;;;;;;;0.80;0.80;;;;;;;14.75;nan;60970.22;5032675;28;20179;-62
2023/10/09 03:51:22;;;;;;;0.80;0.80;;;;;;;14.76;nan;60943.59;5032551;28;20162;-63
2023/10/09 03:53:52;;;;;;;0.90;0.90;;;;;;;14.53;nan;61087.94;5032363;28;20179;-63
2023/10/09 03:56:21;;;;;;;0.80;0.80;;;;;;;14.74;nan;60949.06;5031026;28;20266;-62
2023/10/09 03:58:52;;;;;;;0.70;0.70;;;;;;;14.53;nan;60959.41;5023787;28;20224;-61
2023/10/09 04:03:47;;;;;;;0.70;0.70;;;;;;;14.41;nan;61084.13;5010939;28;20557;-63
2023/10/09 04:06:12;;;;;;;0.82;0.82;;;;;;;14.53;nan;61005.69;5016513;28;20207;-62
2023/10/09 04:08:44;;;;;;;0.80;0.80;;;;;;;14.72;nan;61139.66;5011210;28;20222;-62
2023/10/09 04:11:16;;;;;;;0.82;0.82;;;;;;;14.47;nan;61016.38;5010287;28;20186;-61
2023/10/09 04:13:47;;;;;;;1.02;1.02;;;;;;;14.49;nan;61108.56;5009594;28;20180;-62
2023/10/09 04:16:34;;;;;;;0.85;0.85;;;;;;;14.56;nan;61052.78;5012950;28;20277;-62
2023/10/09 04:19:05;;;;;;;1.52;1.42;;;;;;;14.68;nan;60980.88;5011353;28;20226;-64
2023/10/09 04:21:37;;;;;;;1.02;1.02;;;;;;;14.62;nan;60976.13;5009508;28;20175;-61
2023/10/09 04:24:22;;;;;;;0.80;0.80;;;;;;;14.55;nan;61020.81;5008275;28;20172;-62
2023/10/09 04:26:48;;;;;;;1.00;1.00;;;;;;;14.53;nan;60954.28;5007423;28;20742;-63
2023/10/09 04:29:27;;;;;;;0.73;0.73;;;;;;;14.31;nan;60986.03;5003493;28;20184;-65
2023/10/09 04:31:56;;;;;;;1.05;1.05;;;;;;;14.31;nan;60950.06;5004999;28;20172;-64
2023/10/09 04:40:10;;;;;;;0.90;0.90;;;;;;;14.10;nan;61011.75;4995112;28;20199;-62
2023/10/09 04:42:38;;;;;;;0.88;0.88;;;;;;;13.92;nan;60999.19;5010839;28;20187;-62
2023/10/09 04:47:37;;;;;;;0.82;0.82;;;;;;;13.81;nan;61071.53;5011901;28;20256;-63
2023/10/09 04:50:14;;;;;;;0.88;0.88;;;;;;;13.83;nan;60896.06;5011640;28;20168;-62
2023/10/09 04:57:45;;;;;;;0.75;0.75;;;;;;;13.70;nan;60787.59;5010247;28;20230;-63
2023/10/09 05:02:56;;;;;;;1.10;1.10;;;;;;;13.99;nan;60857.56;5012797;28;20556;-62
2023/10/09 05:08:21;;;;;;;0.93;0.93;;;;;;;13.92;nan;60890.78;5030971;28;20209;-64
2023/10/09 05:11:15;;;;;;;0.80;0.80;;;;;;;13.69;nan;60776.22;5014664;28;20207;-62
2023/10/09 05:16:54;;;;;;;0.82;0.82;;;;;;;13.80;nan;60838.78;5020776;28;20245;-62
2023/10/09 05:18:59;;;;;;;1.02;1.02;;;;;;;13.81;nan;60839.91;5008699;28;20199;-62
2023/10/09 05:21:36;;;;;;;0.98;0.98;;;;;;;13.86;nan;60900.00;5011530;28;20195;-63
2023/10/09 05:24:18;;;;;;;0.90;0.90;;;;;;;13.95;nan;60928.09;5010696;28;20197;-63
2023/10/09 05:32:04;;;;;;;0.80;0.80;;;;;;;13.91;nan;61136.16;5010377;28;20176;-63
2023/10/09 05:34:33;;;;;;;0.70;0.70;;;;;;;13.73;nan;61011.19;5010603;28;20190;-63
2023/10/09 05:37:17;;;;;;;1.00;1.00;;;;;;;13.92;nan;61155.28;5011300;28;20191;-62
2023/10/09 05:50:34;;;;;;;1.48;0.95;;;;;;;13.59;nan;60842.00;5010829;28;20207;-65
2023/10/09 06:03:48;;;;;;;0.90;0.90;;;;;;;14.13;nan;61182.13;5013644;28;20638;-65
2023/10/09 06:06:33;;;;;;;0.93;0.93;;;;;;;14.37;nan;60915.16;5015088;28;20195;-62
2023/10/09 06:19:28;;;;;;;0.80;0.80;;;;;;;14.33;nan;61077.66;4995354;28;20177;-65
2023/10/09 06:29:38;;;;;;;1.25;1.23;;;;;;;14.32;nan;61007.16;4995013;28;20172;-62
2023/10/09 06:34:51;;;;;;;0.80;0.80;;;;;;;14.31;nan;61042.56;4994801;28;20183;-63
2023/10/09 06:47:55;;;;;;;0.95;0.90;;;;;;;14.35;nan;60903.16;4994659;28;20278;-64
2023/10/09 06:52:57;;;;;;;0.90;0.90;;;;;;;14.55;nan;60987.38;4994008;28;20184;-62
2023/10/09 06:55:34;;;;;;;1.00;1.00;;;;;;;14.55;nan;61017.66;4994103;28;20624;-64
2023/10/09 06:58:15;;;;;;;0.93;0.93;;;;;;;14.65;nan;61064.34;4994651;28;20314;-64
2023/10/09 07:03:32;;;;;;;0.80;0.80;;;;;;;14.87;nan;61007.41;4994355;28;20252;-63
2023/10/09 07:06:56;;;;;;;0.73;0.73;;;;;;;14.86;nan;60993.44;4994500;28;20223;-63
2023/10/09 07:09:42;;;;;;;1.08;1.00;;;;;;;15.03;nan;60994.00;4992843;28;20643;-64
2023/10/09 07:15:01;;;;;;;0.80;0.80;;;;;;;13.11;nan;60875.78;4993223;28;20165;-63
2023/10/09 07:24:58;;;;;;;0.90;0.90;;;;;;;15.46;nan;61170.56;4993716;28;20171;-63
2023/10/09 07:38:10;;;;;;;0.85;0.85;;;;;;;16.73;nan;61273.63;4993295;28;20644;-63
2023/10/09 07:40:55;;;;;;;0.95;0.90;;;;;;;16.34;nan;61237.84;4993410;28;20176;-62
2023/10/09 07:43:26;;;;;;;0.80;0.80;;;;;;;16.57;nan;61194.19;4993504;28;20648;-63
2023/10/09 07:48:26;;;;;;;0.77;0.77;;;;;;;16.55;nan;61163.56;4993352;28;20184;-63
2023/10/09 07:50:57;;;;;;;0.90;0.90;;;;;;;16.68;nan;61335.03;4993380;28;20191;-64
2023/10/09 07:53:29;;;;;;;0.93;0.93;;;;;;;16.75;nan;61195.88;4992275;28;20173;-64
2023/10/09 07:55:55;;;;;;;0.60;0.60;;;;;;;17.12;nan;61245.38;4993153;28;20235;-64
2023/10/09 07:58:25;;;;;;;0.80;0.80;;;;;;;16.98;nan;61252.25;4993198;28;20224;-64
2023/10/09 08:01:15;;;;;;;0.63;0.63;;;;;;;16.93;nan;61205.88;4993274;28;20644;-64
2023/10/09 08:03:46;;;;;;;1.23;1.23;;;;;;;17.12;nan;61369.28;4993607;28;20172;-63
2023/10/09 08:17:11;;;;;;;0.85;0.82;;;;;;;16.70;nan;61167.59;4993003;28;20188;-63
2023/10/09 08:19:51;;;;;;;0.70;0.70;;;;;;;16.52;nan;61208.59;4993002;28;20169;-63
2023/10/09 08:24:56;;;;;;;0.90;0.90;;;;;;;16.49;nan;61293.47;4992879;28;20184;-64
2023/10/09 08:33:02;;;;;;;1.10;1.00;;;;;;;16.74;nan;61138.56;4993282;28;20199;-64
2023/10/09 08:35:33;;;;;;;0.90;0.90;;;;;;;16.86;nan;61344.50;4992999;28;20180;-63
2023/10/09 08:38:03;;;;;;;0.82;0.82;;;;;;;16.72;nan;61345.28;4992752;28;20660;-63
2023/10/09 08:40:42;;;;;;;0.60;0.60;;;;;;;17.12;nan;61216.41;4992158;28;20620;-63
2023/10/09 08:43:30;;;;;;;2.33;1.23;;;;;;;16.99;nan;61255.97;4992822;28;20627;-63
2023/10/09 08:46:03;;;;;;;0.90;0.90;;;;;;;17.17;nan;61343.97;4992439;28;20642;-64
2023/10/09 08:48:30;;;;;;;0.90;0.90;;;;;;;17.04;nan;61187.31;4992273;28;20169;-62
2023/10/09 08:50:56;;;;;;;1.15;0.95;;;;;;;17.38;nan;61385.22;4992112;28;20173;-64
2023/10/09 08:53:33;;;;;;;0.60;0.60;;;;;;;17.60;nan;61410.13;4992514;28;20991;-64
2023/10/09 08:55:58;;;;;;;0.93;0.93;;;;;;;18.02;nan;61350.50;4992502;28;20615;-64
2023/10/09 08:58:37;;;;;;;1.42;0.95;;;;;;;17.89;nan;61446.97;4992392;28;20282;-64
2023/10/09 09:01:02;;;;;;;0.70;0.70;;;;;;;17.57;nan;61289.91;4992465;28;20619;-64
2023/10/09 09:03:38;;;;;;;1.10;0.82;;;;;;;17.45;nan;61269.16;4992345;28;20260;-63
2023/10/09 09:06:04;;;;;;;0.90;0.90;;;;;;;17.75;nan;61328.34;4992528;28;20271;-62
2023/10/09 09:08:36;;;;;;;1.13;1.08;;;;;;;17.92;nan;61316.50;4991136;28;20177;-63
2023/10/09 09:11:30;;;;;;;0.80;0.80;;;;;;;18.19;nan;61325.75;4993777;28;20163;-64
2023/10/09 09:13:58;;;;;;;0.80;0.80;;;;;;;17.93;nan;61405.53;5011460;28;20164;-65
2023/10/09 09:16:29;;;;;;;0.93;0.93;;;;;;;17.70;nan;61281.34;5011765;28;20255;-63
2023/10/09 09:19:03;;;;;;;0.93;0.93;;;;;;;17.80;nan;61390.84;5011720;28;20166;-62
2023/10/09 09:21:29;;;;;;;0.60;0.60;;;;;;;17.86;nan;61281.31;5011718;28;20168;-63
2023/10/09 09:24:13;;;;;;;0.77;0.77;;;;;;;12.62;nan;60713.06;5011650;28;20551;-65
2023/10/09 09:26:47;;;;;;;0.98;0.95;;;;;;;17.62;nan;61192.78;5011144;28;20595;-63
2023/10/09 09:29:13;;;;;;;0.65;0.65;;;;;;;17.66;nan;61422.06;5011526;28;20160;-65
2023/10/09 09:31:52;;;;;;;0.70;0.70;;;;;;;17.62;nan;61388.56;5011472;28;20234;-64
2023/10/09 09:34:18;;;;;;;0.75;0.75;;;;;;;17.96;nan;61341.72;5011387;28;20165;-64
2023/10/09 09:36:53;;;;;;;0.70;0.70;;;;;;;18.09;nan;61614.94;5011323;28;20184;-64
2023/10/09 09:39:29;;;;;;;0.60;0.60;;;;;;;18.44;nan;61534.53;5014970;28;20242;-64
2023/10/09 09:42:07;;;;;;;0.50;0.50;;;;;;;18.59;nan;61346.56;5015387;28;20550;-64
2023/10/09 09:44:43;;;;;;;0.75;0.75;;;;;;;18.43;nan;61487.38;5015203;28;20179;-64
2023/10/09 09:47:13;;;;;;;1.00;0.90;;;;;;;18.63;nan;61402.81;5014722;28;20341;-63
2023/10/09 09:49:42;;;;;;;0.80;0.80;;;;;;;18.93;nan;61636.66;5015129;28;20152;-64
2023/10/09 09:52:11;;;;;;;0.70;0.70;;;;;;;;;;5014965;28;20177;-63
2023/10/09 09:54:38;;;;;;;1.30;0.90;;;;;;;19.00;nan;61442.06;5014883;28;20172;-65
2023/10/09 09:57:10;;;;;;;0.65;0.65;;;;;;;19.07;nan;61444.78;5014539;28;20228;-63
2023/10/09 09:59:49;;;;;;;0.70;0.70;;;;;;;19.13;nan;61469.72;5015028;28;20157;-63
2023/10/09 10:02:20;;;;;;;0.80;0.80;;;;;;;19.08;nan;61414.84;5014914;28;20172;-63
2023/10/09 10:04:51;;;;;;;0.80;0.80;;;;;;;19.33;nan;61535.78;5014968;28;20160;-63
2023/10/09 10:07:21;;;;;;;0.60;0.60;;;;;;;19.19;nan;61468.72;5014414;28;20583;-65
2023/10/09 10:09:48;;;;;;;0.70;0.70;;;;;;;19.25;nan;61576.53;5014798;28;20168;-64
2023/10/09 10:12:17;;;;;;;1.27;1.17;;;;;;;19.19;nan;61492.03;5014237;28;20195;-63
2023/10/09 10:15:14;;;;;;;0.68;0.68;;;;;;;19.02;nan;61537.53;5014653;28;20653;-63
2023/10/09 10:18:10;;;;;;;0.70;0.70;;;;;;;18.88;nan;61464.72;5013881;28;20296;-65
2023/10/09 10:21:15;;;;;;;0.82;0.82;;;;;;;19.03;nan;61519.97;5003471;28;20250;-64
2023/10/09 10:23:42;;;;;;;1.77;1.67;;;;;;;19.14;nan;61592.56;5021099;28;20669;-64
2023/10/09 10:26:26;;;;;;;0.60;0.60;;;;;;;19.50;nan;61648.38;5014020;28;20176;-64
2023/10/09 10:29:33;;;;;;;0.75;0.75;;;;;;;19.84;nan;61639.69;4994292;28;20175;-64
2023/10/09 10:32:06;;;;;;;0.70;0.70;;;;;;;20.03;nan;61806.47;4993784;28;20619;-65
2023/10/09 10:35:06;;;;;;;0.80;0.70;;;;;;;20.29;nan;61680.34;4995476;28;20177;-64
2023/10/09 10:37:50;;;;;;;0.93;0.93;;;;;;;20.14;nan;61580.31;5011860;28;20218;-64
2023/10/09 10:40:46;;;;;;;0.70;0.70;;;;;;;19.73;nan;61647.97;5020403;28;20179;-64
2023/10/09 10:48:59;;;;;;;1.35;0.75;;;;;;;20.08;nan;61573.50;4991409;28;20175;-64
2023/10/09 10:51:37;;;;;;;1.05;0.93;;;;;;;20.21;nan;61730.94;5014404;28;20187;-64
2023/10/09 10:56:51;;;;;;;0.80;0.80;;;;;;;20.67;nan;61652.19;5002954;28;20649;-64
2023/10/09 10:59:22;;;;;;;0.80;0.80;;;;;;;20.61;nan;61877.06;5033704;28;20191;-64
2023/10/09 11:07:09;;;;;;;1.20;0.75;;;;;;;20.81;nan;61639.50;5013650;28;20237;-64
2023/10/09 11:12:45;;;;;;;1.00;1.00;;;;;;;20.55;nan;61605.44;5007059;28;20245;-64
2023/10/09 11:18:07;;;;;;;0.70;0.70;;;;;;;20.96;nan;61689.69;5016125;28;20189;-65
2023/10/09 11:20:35;;;;;;;1.15;0.90;;;;;;;21.12;nan;61674.66;5016813;28;20183;-64
2023/10/09 11:25:50;;;;;;;1.00;0.90;;;;;;;20.91;nan;61770.31;5026000;28;20195;-65
2023/10/09 11:31:11;;;;;;;1.00;0.70;;;;;;;20.33;nan;61697.28;5017150;28;20618;-64
2023/10/09 11:33:43;;;;;;;1.17;0.60;;;;;;;20.90;nan;61712.03;5013893;28;20186;-65
2023/10/09 11:36:09;;;;;;;1.77;0.60;;;;;;;20.34;nan;61773.69;5032846;28;20174;-65
2023/10/09 11:38:38;;;;;;;0.52;0.52;;;;;;;20.81;nan;61610.94;5032907;28;20191;-64
2023/10/09 11:41:23;;;;;;;0.90;0.90;;;;;;;20.86;nan;61665.38;5022178;28;20651;-63
2023/10/09 11:43:51;;;;;;;0.70;0.70;;;;;;;21.12;nan;61726.03;5028332;28;20197;-65
2023/10/09 11:46:37;;;;;;;0.75;0.70;;;;;;;21.11;nan;61709.88;5014683;28;20184;-65
2023/10/09 11:52:03;;;;;;;1.67;1.05;;;;;;;20.92;nan;61651.41;5032381;28;20159;-65
2023/10/09 11:54:31;;;;;;;2.20;0.80;;;;;;;20.95;nan;61693.75;5032500;28;20194;-64
2023/10/09 11:57:00;;;;;;;0.68;0.68;;;;;;;17.29;nan;61307.34;5014249;28;20768;-65
2023/10/09 11:59:34;;;;;;;0.80;0.80;;;;;;;20.41;nan;61719.34;5027740;28;20263;-63
2023/10/09 12:02:01;;;;;;;0.80;0.80;;;;;;;20.60;nan;61675.44;5012013;28;20164;-63
2023/10/09 12:04:30;;;;;;;0.50;0.50;;;;;;;20.58;nan;61644.59;5023040;28;20540;-63
2023/10/09 12:07:06;;;;;;;0.90;0.90;;;;;;;20.75;nan;61770.34;5032283;28;20222;-64
2023/10/09 12:09:34;;;;;;;0.75;0.75;;;;;;;20.96;nan;61679.31;5032469;28;20254;-64
2023/10/09 12:12:07;;;;;;;0.68;0.68;;;;;;;20.61;nan;61731.66;5032420;28;20279;-64
2023/10/09 12:14:33;;;;;;;0.75;0.75;;;;;;;20.68;nan;61830.47;5032134;28;20160;-63
2023/10/09 12:17:07;;;;;;;0.68;0.68;;;;;;;20.55;nan;61636.00;5029547;28;20267;-63
2023/10/09 12:19:37;;;;;;;1.20;1.10;;;;;;;20.41;nan;61625.34;5017565;28;20230;-64
2023/10/09 12:22:05;;;;;;;1.13;1.00;;;;;;;20.23;nan;61741.00;5021872;28;20650;-64
2023/10/09 12:24:31;;;;;;;0.70;0.70;;;;;;;20.18;nan;61519.41;5012051;28;20895;-63
2023/10/09 12:26:57;;;;;;;0.80;0.80;;;;;;;20.37;nan;61748.53;5011013;28;20226;-64
2023/10/09 12:29:24;;;;;;;0.75;0.75;;;;;;;20.43;nan;61731.44;5029637;28;20642;-63
2023/10/09 12:31:57;;;;;;;0.70;0.70;;;;;;;20.47;nan;61860.56;5012021;28;20164;-64
2023/10/09 12:34:26;;;;;;;1.23;1.00;;;;;;;20.86;nan;61738.09;5018183;28;20179;-63
2023/10/09 12:36:55;;;;;;;0.68;0.68;;;;;;;21.17;nan;61837.72;5031902;28;20179;-63
2023/10/09 12:39:21;;;;;;;1.00;0.90;;;;;;;21.17;nan;61707.78;5032029;28;20175;-64
2023/10/09 12:41:48;;;;;;;1.13;0.70;;;;;;;21.04;nan;61972.13;5031827;28;20175;-63
2023/10/09 12:44:20;;;;;;;0.73;0.73;;;;;;;21.08;nan;61696.09;5017851;28;20176;-62
2023/10/09 12:46:51;;;;;;;0.63;0.63;;;;;;;21.06;nan;61808.13;5028085;28;20696;-64
2023/10/09 12:49:19;;;;;;;0.70;0.70;;;;;;;21.41;nan;61790.16;5012451;28;20179;-63
2023/10/09 12:51:45;;;;;;;0.63;0.63;;;;;;;21.40;nan;61713.06;5016638;28;20189;-63
2023/10/09 12:54:10;;;;;;;1.05;0.90;;;;;;;21.39;nan;62019.25;5031692;28;20250;-64
2023/10/09 12:56:38;;;;;;;0.80;0.80;;;;;;;21.37;nan;61712.81;5031827;28;20183;-64
2023/10/09 12:59:05;;;;;;;0.60;0.60;;;;;;;21.51;nan;61743.72;5031412;28;20604;-64
2023/10/09 13:01:42;;;;;;;2.95;0.70;;;;;;;21.11;nan;61667.75;5013414;28;20338;-63
2023/10/09 13:04:11;;;;;;;1.15;0.90;;;;;;;21.02;nan;61790.03;5026510;28;20219;-63
2023/10/09 13:06:45;;;;;;;0.95;0.80;;;;;;;21.05;nan;61643.31;5010272;28;20192;-63
2023/10/09 13:09:13;;;;;;;1.80;0.60;;;;;;;21.34;nan;61981.78;5023097;28;20182;-64
2023/10/09 13:11:40;;;;;;;0.70;0.70;;;;;;;21.14;nan;61692.50;5031294;28;20262;-64
2023/10/09 13:14:16;;;;;;;1.10;1.00;;;;;;;21.27;nan;61732.13;5034601;28;20179;-64
2023/10/09 13:16:42;;;;;;;1.73;0.80;;;;;;;20.91;nan;61790.53;5035510;28;20252;-64
2023/10/09 13:19:10;;;;;;;1.45;1.25;;;;;;;21.16;nan;61683.81;5035624;28;20179;-64
2023/10/09 13:21:39;;;;;;;0.52;0.52;;;;;;;21.18;nan;61644.50;5024043;28;20655;-64
2023/10/09 13:24:12;;;;;;;0.90;0.60;;;;;;;21.08;nan;61813.00;5029332;28;20179;-63
2023/10/09 13:26:38;;;;;;;0.70;0.70;;;;;;;21.32;nan;61828.75;5018203;28;20192;-63
2023/10/09 13:29:03;;;;;;;0.90;0.90;;;;;;;21.44;nan;61764.41;5017425;28;20180;-63
2023/10/09 13:31:33;;;;;;;1.23;0.80;;;;;;;21.47;nan;61731.41;5035367;28;20258;-63
2023/10/09 13:34:00;;;;;;;1.85;1.52;;;;;;;21.51;nan;61871.13;5035045;28;20859;-64
2023/10/09 13:36:33;;;;;;;1.10;1.00;;;;;;;21.47;nan;61718.41;5034982;28;20179;-64
2023/10/09 13:41:48;;;;;;;0.70;0.70;;;;;;;20.92;nan;61833.22;5016819;28;20210;-63
2023/10/09 13:44:14;;;;;;;0.90;0.90;;;;;;;20.89;nan;61640.22;5030731;28;20647;-64
2023/10/09 13:46:43;;;;;;;0.63;0.63;;;;;;;20.56;nan;61746.19;5015401;28;20205;-63
2023/10/09 13:49:12;;;;;;;0.93;0.93;;;;;;;20.35;nan;61597.78;5024602;28;20187;-63
2023/10/09 13:51:44;;;;;;;0.77;0.77;;;;;;;20.43;nan;61604.25;5034927;28;20539;-63
2023/10/09 13:54:18;;;;;;;0.73;0.65;;;;;;;20.34;nan;61583.69;5034695;28;20237;-63
2023/10/09 13:56:43;;;;;;;0.70;0.70;;;;;;;20.30;nan;61849.56;5026073;28;20184;-63
2023/10/09 13:59:10;;;;;;;0.57;0.57;;;;;;;20.38;nan;61747.09;5025403;28;20241;-63
2023/10/09 14:01:38;;;;;;;0.80;0.80;;;;;;;20.44;nan;61598.16;5021505;28;20665;-63
2023/10/09 14:04:06;;;;;;;0.70;0.70;;;;;;;20.04;nan;61467.25;5014979;28;20198;-64
2023/10/09 14:06:31;;;;;;;0.65;0.65;;;;;;;20.09;nan;61543.53;5022108;28;20190;-64
2023/10/09 14:09:05;;;;;;;0.63;0.63;;;;;;;19.93;nan;61452.78;5027859;28;20168;-65
2023/10/09 14:11:37;;;;;;;0.80;0.80;;;;;;;19.98;nan;61502.53;5017875;28;20655;-64
2023/10/09 14:14:03;;;;;;;1.63;1.08;;;;;;;19.98;nan;61652.38;5015174;28;20203;-63
2023/10/09 14:16:32;;;;;;;1.52;1.38;;;;;;;20.02;nan;61634.16;5034546;28;20179;-63
2023/10/09 14:18:59;;;;;;;1.45;1.10;;;;;;;20.07;nan;61585.34;5034281;28;20171;-63
2023/10/09 14:21:30;;;;;;;0.90;0.90;;;;;;;20.07;nan;61549.03;5033182;28;20179;-65
2023/10/09 14:23:58;;;;;;;1.90;0.80;;;;;;;19.89;nan;61505.31;5032394;28;20172;-64
2023/10/09 14:26:27;;;;;;;2.15;1.42;;;;;;;19.93;nan;61781.59;5033833;28;20175;-63
2023/10/09 14:28:56;;;;;;;1.65;0.60;;;;;;;20.10;nan;61824.25;5034094;28;20653;-65
2023/10/09 14:31:28;;;;;;;0.73;0.73;;;;;;;19.92;nan;61819.91;5034199;28;20657;-65
2023/10/09 14:33:54;;;;;;;0.60;0.60;;;;;;;19.96;nan;61587.88;5034234;28;20190;-64
2023/10/09 14:36:21;;;;;;;0.95;0.90;;;;;;;19.89;nan;61556.63;5028723;28;20559;-65
2023/10/09 14:38:52;;;;;;;0.57;0.57;;;;;;;20.05;nan;61608.47;5015291;28;20306;-63
2023/10/09 14:41:21;;;;;;;1.00;0.65;;;;;;;19.98;nan;61567.38;5029528;28;20179;-64
2023/10/09 14:43:48;;;;;;;1.15;1.05;;;;;;;19.65;nan;61488.56;5014253;28;20194;-63
2023/10/09 14:46:14;;;;;;;0.80;0.80;;;;;;;19.56;nan;61784.75;5023990;28;20182;-65
2023/10/09 14:48:41;;;;;;;0.80;0.80;;;;;;;19.48;nan;61611.84;5033843;28;20171;-63
2023/10/09 14:51:07;;;;;;;0.80;0.80;;;;;;;19.70;nan;61551.22;5033678;28;20202;-63
2023/10/09 14:53:35;;;;;;;0.60;0.60;;;;;;;19.37;nan;61621.22;5033529;28;20181;-64
2023/10/09 14:56:08;;;;;;;0.77;0.77;;;;;;;19.52;nan;61525.66;5033429;28;20619;-63
2023/10/09 14:58:34;;;;;;;0.65;0.65;;;;;;;19.38;nan;61463.72;5033867;28;20226;-63
2023/10/09 15:01:15;;;;;;;0.80;0.80;;;;;;;19.48;nan;61526.31;5033721;28;20205;-64